Time,TemperatureF,DewpointF,PressureIn,WindDirection,WindDirectionDegrees,WindSpeedMPH,WindSpeedGustMPH,Humidity,HourlyPrecipIn,Conditions,Clouds,dailyrainin,SolarRadiationWatts/m^2,SoftwareType,DateUTC
2013-06-06 00:01:00,58.8,55.0,30.14,SSE,158,0.0,0.0,87,0.00,,OVC,0.00,0.00,VWS V14.00,2013-06-06 04:01:00,
2013-06-06 00:06:00,59.1,55.2,30.13,SSE,158,0.0,0.0,87,0.00,,OVC,0.00,0.00,VWS V14.00,2013-06-06 04:06:00,
2013-06-06 00:11:00,59.3,55.4,30.13,SSE,158,0.0,0.0,87,0.00,,OVC,0.00,0.00,VWS V14.00,2013-06-06 04:11:00,
2013-06-06 00:16:00,59.5,56.0,30.13,SSE,158,0.0,0.0,88,0.00,,OVC,0.00,0.00,VWS V14.00,2013-06-06 04:16:00,
2013-06-06 00:21:00,59.5,56.0,30.13,SSE,158,0.0,0.0,88,0.00,,OVC,0.00,0.00,VWS V14.00,2013-06-06 04:21:00,
2013-06-06 00:26:00,59.7,56.2,30.13,SSE,158,0.0,0.0,88,0.00,,OVC,0.00,0.00,VWS V14.00,2013-06-06 04:26:00,
2013-06-06 00:31:00,59.7,56.2,30.13,SSE,158,0.0,0.0,88,0.00,,OVC,0.00,0.00,VWS V14.00,2013-06-06 04:31:00,
2013-06-06 00:36:00,59.9,56.3,30.13,SSE,158,0.0,0.0,88,0.00,,OVC,0.00,0.00,VWS V14.00,2013-06-06 04:36:00,
2013-06-06 00:41:00,59.9,56.3,30.13,SSE,158,1.1,1.1,88,0.00,,OVC,0.00,0.00,VWS V14.00,2013-06-06 04:41:00,
2013-06-06 00:46:00,60.0,56.4,30.13,SSE,158,0.0,0.0,88,0.00,,OVC,0.00,0.00,VWS V14.00,2013-06-06 04:46:00,
2013-06-06 00:52:00,60.0,56.4,30.13,SSE,158,0.0,0.0,88,0.00,,OVC,0.00,0.00,VWS V14.00,2013-06-06 04:52:00,
2013-06-06 00:57:00,60.0,56.4,30.12,SSE,158,0.0,0.0,88,0.00,,OVC,0.00,0.00,VWS V14.00,2013-06-06 04:57:00,
2013-06-06 01:02:00,60.0,56.4,30.12,ESE,112,0.0,0.0,88,0.00,,OVC,0.00,0.00,VWS V14.00,2013-06-06 05:02:00,
2013-06-06 01:07:00,60.0,56.8,30.13,ESE,112,0.0,0.0,89,0.00,,OVC,0.00,0.00,VWS V14.00,2013-06-06 05:07:00,
2013-06-06 01:12:00,60.0,56.8,30.13,SE,135,0.0,0.0,89,0.00,,OVC,0.00,0.00,VWS V14.00,2013-06-06 05:12:00,
2013-06-06 01:17:00,60.0,56.8,30.12,SSW,202,2.2,2.2,89,0.00,,OVC,0.00,0.00,VWS V14.00,2013-06-06 05:17:00,
2013-06-06 01:22:00,60.0,56.8,30.13,SE,135,0.0,0.0,89,0.00,,OVC,0.00,0.00,VWS V14.00,2013-06-06 05:22:00,
2013-06-06 01:27:00,60.0,56.8,30.13,SE,135,0.0,0.0,89,0.00,,OVC,0.00,0.00,VWS V14.00,2013-06-06 05:27:00,
2013-06-06 01:32:00,60.0,56.8,30.13,SE,135,0.0,0.0,89,0.00,,OVC,0.00,0.00,VWS V14.00,2013-06-06 05:32:00,
2013-06-06 01:37:00,60.0,56.8,30.13,SE,135,2.2,2.2,89,0.00,,OVC,0.00,0.00,VWS V14.00,2013-06-06 05:37:00,
2013-06-06 01:42:00,60.0,56.8,30.13,SSE,158,0.0,0.0,89,0.00,,OVC,0.00,0.00,VWS V14.00,2013-06-06 05:42:00,
2013-06-06 01:47:00,60.0,56.8,30.13,SSE,158,0.0,0.0,89,0.00,,OVC,0.00,0.00,VWS V14.00,2013-06-06 05:47:00,
2013-06-06 01:52:00,60.0,56.8,30.13,SE,135,0.0,0.0,89,0.00,,OVC,0.00,0.00,VWS V14.00,2013-06-06 05:52:00,
2013-06-06 01:57:00,60.0,56.8,30.13,SSW,202,1.1,1.1,89,0.00,,OVC,0.00,0.00,VWS V14.00,2013-06-06 05:57:00,
2013-06-06 02:02:00,60.0,56.8,30.13,South,180,0.0,0.0,89,0.00,,OVC,0.00,0.00,VWS V14.00,2013-06-06 06:02:00,
2013-06-06 02:07:00,60.2,57.0,30.13,South,180,0.0,0.0,89,0.00,,OVC,0.00,0.00,VWS V14.00,2013-06-06 06:07:00,
2013-06-06 02:12:00,60.0,56.8,30.13,ESE,112,0.0,0.0,89,0.00,,OVC,0.00,0.00,VWS V14.00,2013-06-06 06:12:00,
2013-06-06 02:17:00,60.0,56.8,30.13,South,180,0.0,0.0,89,0.00,,OVC,0.00,0.00,VWS V14.00,2013-06-06 06:17:00,
2013-06-06 02:22:00,59.9,56.7,30.13,SSE,158,0.0,0.0,89,0.00,,OVC,0.00,0.00,VWS V14.00,2013-06-06 06:22:00,
2013-06-06 02:27:00,59.7,56.5,30.13,SSE,158,0.0,0.0,89,0.00,,OVC,0.00,0.00,VWS V14.00,2013-06-06 06:27:00,
2013-06-06 02:32:00,59.7,56.5,30.13,SSE,158,0.0,0.0,89,0.00,,OVC,0.00,0.00,VWS V14.00,2013-06-06 06:32:00,
2013-06-06 02:37:00,59.7,56.5,30.13,SSE,158,0.0,0.0,89,0.00,,OVC,0.00,0.00,VWS V14.00,2013-06-06 06:37:00,
2013-06-06 02:42:00,59.7,56.5,30.13,SSE,158,0.0,0.0,89,0.00,,OVC,0.00,0.00,VWS V14.00,2013-06-06 06:42:00,
2013-06-06 02:47:00,59.5,56.3,30.14,SSE,158,0.0,0.0,89,0.00,,OVC,0.00,0.00,VWS V14.00,2013-06-06 06:47:00,
2013-06-06 02:52:00,59.3,56.1,30.14,SSE,158,0.0,0.0,89,0.00,,OVC,0.00,0.00,VWS V14.00,2013-06-06 06:52:00,
2013-06-06 02:57:00,59.1,55.9,30.14,SSE,158,0.0,0.0,89,0.00,,OVC,0.00,0.00,VWS V14.00,2013-06-06 06:57:00,
2013-06-06 03:02:00,58.8,55.6,30.13,SSE,158,0.0,0.0,89,0.00,,OVC,0.00,0.00,VWS V14.00,2013-06-06 07:02:00,
2013-06-06 03:07:00,58.8,55.6,30.13,SSE,158,0.0,0.0,89,0.00,,OVC,0.00,0.00,VWS V14.00,2013-06-06 07:07:00,
2013-06-06 03:12:00,58.6,55.4,30.13,SSE,158,0.0,0.0,89,0.00,,OVC,0.00,0.00,VWS V14.00,2013-06-06 07:12:00,
2013-06-06 03:17:00,58.6,55.4,30.13,SSE,158,0.0,0.0,89,0.00,,OVC,0.00,0.00,VWS V14.00,2013-06-06 07:17:00,
2013-06-06 03:22:00,58.2,55.0,30.13,SSE,158,0.0,0.0,89,0.00,,OVC,0.00,0.00,VWS V14.00,2013-06-06 07:22:00,
2013-06-06 03:27:00,58.4,55.2,30.13,SSE,158,0.0,0.0,89,0.00,,OVC,0.00,0.00,VWS V14.00,2013-06-06 07:27:00,
2013-06-06 03:32:00,58.6,55.4,30.13,SSE,158,0.0,0.0,89,0.00,,OVC,0.00,0.00,VWS V14.00,2013-06-06 07:32:00,
2013-06-06 03:37:00,58.6,55.4,30.12,SSE,158,0.0,0.0,89,0.00,,OVC,0.00,0.00,VWS V14.00,2013-06-06 07:37:00,
2013-06-06 03:42:00,58.6,55.4,30.12,SSE,158,0.0,0.0,89,0.00,,OVC,0.00,0.00,VWS V14.00,2013-06-06 07:42:00,
2013-06-06 03:47:00,58.6,55.4,30.12,SSE,158,0.0,0.0,89,0.00,,OVC,0.00,0.00,VWS V14.00,2013-06-06 07:47:00,
2013-06-06 03:52:00,58.6,55.4,30.13,SSE,158,0.0,0.0,89,0.00,,OVC,0.00,0.00,VWS V14.00,2013-06-06 07:52:00,
2013-06-06 03:57:00,58.4,55.2,30.13,SSE,158,0.0,0.0,89,0.00,,OVC,0.00,0.00,VWS V14.00,2013-06-06 07:57:00,
2013-06-06 04:02:00,58.4,55.2,30.13,SSE,158,0.0,0.0,89,0.00,,OVC,0.00,0.00,VWS V14.00,2013-06-06 08:02:00,
2013-06-06 04:07:00,58.2,55.0,30.13,SSE,158,0.0,0.0,89,0.00,,OVC,0.00,0.00,VWS V14.00,2013-06-06 08:07:00,
2013-06-06 04:12:00,58.2,55.0,30.13,SSE,158,0.0,0.0,89,0.00,,OVC,0.00,0.00,VWS V14.00,2013-06-06 08:12:00,
2013-06-06 04:17:00,58.2,55.0,30.13,SSE,158,0.0,0.0,89,0.00,,OVC,0.00,0.00,VWS V14.00,2013-06-06 08:17:00,
2013-06-06 04:22:00,58.2,55.0,30.13,SSE,158,0.0,0.0,89,0.00,,OVC,0.00,0.00,VWS V14.00,2013-06-06 08:22:00,
2013-06-06 04:27:00,58.4,55.2,30.13,SSE,158,0.0,0.0,89,0.00,,OVC,0.00,0.00,VWS V14.00,2013-06-06 08:27:00,
2013-06-06 04:32:00,58.6,55.4,30.13,SSE,158,0.0,0.0,89,0.00,,OVC,0.00,0.00,VWS V14.00,2013-06-06 08:32:00,
2013-06-06 04:37:00,58.8,55.6,30.13,SSE,158,0.0,0.0,89,0.00,,OVC,0.00,0.00,VWS V14.00,2013-06-06 08:37:00,
2013-06-06 04:42:00,58.8,55.9,30.13,SSE,158,0.0,0.0,90,0.00,,OVC,0.00,0.00,VWS V14.00,2013-06-06 08:42:00,
2013-06-06 04:47:00,58.8,55.9,30.13,NE,45,0.0,0.0,90,0.00,,OVC,0.00,0.00,VWS V14.00,2013-06-06 08:47:00,
2013-06-06 04:52:00,58.8,55.9,30.13,NE,45,0.0,0.0,90,0.00,,OVC,0.00,0.00,VWS V14.00,2013-06-06 08:52:00,
2013-06-06 04:57:00,58.8,55.9,30.13,NE,45,0.0,0.0,90,0.00,,OVC,0.00,0.00,VWS V14.00,2013-06-06 08:57:00,
2013-06-06 05:02:00,58.8,55.9,30.13,NE,45,0.0,0.0,90,0.00,,OVC,0.00,0.00,VWS V14.00,2013-06-06 09:02:00,
2013-06-06 05:07:00,58.8,55.9,30.13,NE,45,0.0,0.0,90,0.00,,OVC,0.00,0.00,VWS V14.00,2013-06-06 09:07:00,
2013-06-06 05:12:00,58.8,55.9,30.13,NE,45,0.0,0.0,90,0.00,,OVC,0.00,0.00,VWS V14.00,2013-06-06 09:12:00,
2013-06-06 05:17:00,58.8,55.9,30.13,North,0,0.0,0.0,90,0.00,,OVC,0.00,0.00,VWS V14.00,2013-06-06 09:17:00,
2013-06-06 05:22:00,58.8,55.9,30.13,NE,45,0.0,0.0,90,0.00,,OVC,0.00,0.00,VWS V14.00,2013-06-06 09:22:00,
2013-06-06 05:27:00,58.8,55.9,30.13,NE,45,0.0,0.0,90,0.00,,OVC,0.00,0.00,VWS V14.00,2013-06-06 09:27:00,
2013-06-06 05:32:00,58.8,55.9,30.13,NE,45,0.0,0.0,90,0.00,,OVC,0.00,0.00,VWS V14.00,2013-06-06 09:32:00,
2013-06-06 05:37:00,58.8,55.9,30.13,NE,45,0.0,0.0,90,0.00,,OVC,0.00,0.00,VWS V14.00,2013-06-06 09:37:00,
2013-06-06 05:42:00,58.8,55.9,30.13,NE,45,0.0,0.0,90,0.00,,OVC,0.00,0.00,VWS V14.00,2013-06-06 09:42:00,
2013-06-06 05:47:00,59.1,56.2,30.13,NE,45,0.0,0.0,90,0.00,,OVC,0.00,0.00,VWS V14.00,2013-06-06 09:47:00,
2013-06-06 05:52:00,59.3,56.4,30.13,NE,45,0.0,0.0,90,0.00,,OVC,0.00,0.00,VWS V14.00,2013-06-06 09:52:00,
2013-06-06 05:57:00,59.7,56.8,30.13,NE,45,0.0,0.0,90,0.00,,OVC,0.00,0.00,VWS V14.00,2013-06-06 09:57:00,
2013-06-06 06:02:00,60.0,57.1,30.13,NE,45,0.0,0.0,90,0.00,,OVC,0.00,0.00,VWS V14.00,2013-06-06 10:02:00,
2013-06-06 06:07:00,60.0,57.1,30.12,NE,45,0.0,0.0,90,0.00,,OVC,0.00,0.00,VWS V14.00,2013-06-06 10:07:00,
2013-06-06 06:12:00,59.9,56.7,30.12,NE,45,0.0,0.0,89,0.00,,OVC,0.00,0.00,VWS V14.00,2013-06-06 10:12:00,
2013-06-06 06:17:00,59.9,56.7,30.13,NE,45,0.0,0.0,89,0.00,,OVC,0.00,0.00,VWS V14.00,2013-06-06 10:17:00,
2013-06-06 06:22:00,60.0,57.1,30.12,NE,45,0.0,0.0,90,0.00,,OVC,0.00,0.00,VWS V14.00,2013-06-06 10:22:00,
2013-06-06 06:27:00,60.0,56.8,30.13,NE,45,0.0,0.0,89,0.00,,OVC,0.00,0.00,VWS V14.00,2013-06-06 10:27:00,
2013-06-06 06:32:00,60.2,57.3,30.13,NE,45,0.0,0.0,90,0.00,,OVC,0.00,0.00,VWS V14.00,2013-06-06 10:32:00,
2013-06-06 06:37:00,60.4,57.5,30.13,NE,45,0.0,0.0,90,0.00,,OVC,0.00,0.00,VWS V14.00,2013-06-06 10:37:00,
2013-06-06 06:42:00,60.4,57.2,30.13,NE,45,0.0,0.0,89,0.00,,OVC,0.00,0.00,VWS V14.00,2013-06-06 10:42:00,
2013-06-06 06:47:00,60.6,57.3,30.13,NE,45,0.0,0.0,89,0.00,,OVC,0.00,0.00,VWS V14.00,2013-06-06 10:47:00,
2013-06-06 06:52:00,60.6,57.3,30.13,NE,45,0.0,0.0,89,0.00,,OVC,0.00,0.00,VWS V14.00,2013-06-06 10:52:00,
2013-06-06 06:57:00,60.6,57.3,30.13,SSE,158,0.0,0.0,89,0.00,,OVC,0.00,0.00,VWS V14.00,2013-06-06 10:57:00,
2013-06-06 07:02:00,60.6,57.3,30.12,SSE,158,0.0,0.0,89,0.00,,OVC,0.00,0.00,VWS V14.00,2013-06-06 11:02:00,
2013-06-06 07:07:00,60.6,57.3,30.13,SE,135,0.0,0.0,89,0.00,,OVC,0.00,0.00,VWS V14.00,2013-06-06 11:07:00,
2013-06-06 07:12:00,60.6,57.7,30.12,SSE,158,0.0,0.0,90,0.00,,OVC,0.00,0.00,VWS V14.00,2013-06-06 11:12:00,
2013-06-06 07:17:00,60.6,57.3,30.12,South,180,0.0,0.0,89,0.00,,OVC,0.00,0.00,VWS V14.00,2013-06-06 11:17:00,
2013-06-06 07:22:00,60.6,57.7,30.13,South,180,0.0,0.0,90,0.00,,OVC,0.00,0.00,VWS V14.00,2013-06-06 11:22:00,
2013-06-06 07:27:00,60.9,58.0,30.13,SE,135,0.6,0.6,90,0.00,,OVC,0.00,0.00,VWS V14.00,2013-06-06 11:27:00,
2013-06-06 07:32:00,61.3,58.3,30.13,SSE,158,0.6,0.6,90,0.00,,OVC,0.00,0.00,VWS V14.00,2013-06-06 11:32:00,
2013-06-06 07:37:00,61.5,58.5,30.13,NNW,338,14.0,14.0,90,0.00,,OVC,0.00,0.00,VWS V14.00,2013-06-06 11:37:00,
2013-06-06 07:42:00,62.2,59.2,30.13,South,180,0.0,0.0,90,0.00,,OVC,0.00,0.00,VWS V14.00,2013-06-06 11:42:00,
2013-06-06 07:47:00,62.4,59.1,30.13,SSE,158,0.0,0.0,89,0.00,,OVC,0.00,0.00,VWS V14.00,2013-06-06 11:47:00,
2013-06-06 07:52:00,62.6,59.3,30.13,SE,135,0.0,0.0,89,0.00,,OVC,0.00,0.00,VWS V14.00,2013-06-06 11:52:00,
2013-06-06 07:57:00,62.9,59.6,30.13,SE,135,0.0,0.0,89,0.00,,OVC,0.00,0.00,VWS V14.00,2013-06-06 11:57:00,
2013-06-06 08:02:00,62.9,59.6,30.13,ESE,112,0.0,0.0,89,0.00,,OVC,0.00,0.00,VWS V14.00,2013-06-06 12:02:00,
2013-06-06 08:07:00,63.3,59.7,30.13,ESE,112,0.0,0.0,88,0.00,,OVC,0.00,0.00,VWS V14.00,2013-06-06 12:07:00,
2013-06-06 08:12:00,63.6,60.0,30.13,East,90,0.0,0.0,88,0.00,,OVC,0.00,0.00,VWS V14.00,2013-06-06 12:12:00,
2013-06-06 08:17:00,63.3,59.4,30.13,NE,45,0.0,0.0,87,0.00,,OVC,0.00,0.00,VWS V14.00,2013-06-06 12:17:00,
2013-06-06 08:22:00,64.2,60.3,30.13,NE,45,0.0,0.0,87,0.00,,OVC,0.00,0.00,VWS V14.00,2013-06-06 12:22:00,
2013-06-06 08:27:00,66.5,62.2,30.13,NE,45,0.0,0.0,86,0.00,,OVC,0.00,0.00,VWS V14.00,2013-06-06 12:27:00,
2013-06-06 08:32:00,68.7,63.0,30.13,NE,45,0.0,0.0,82,0.00,,OVC,0.00,0.00,VWS V14.00,2013-06-06 12:32:00,
2013-06-06 08:37:00,70.8,64.3,30.13,NE,45,0.0,0.0,80,0.00,,OVC,0.00,0.00,VWS V14.00,2013-06-06 12:37:00,
2013-06-06 08:42:00,71.7,63.7,30.13,SE,135,0.0,0.0,76,0.00,,OVC,0.00,0.00,VWS V14.00,2013-06-06 12:42:00,
2013-06-06 08:47:00,72.6,63.1,30.13,NE,45,2.4,2.4,72,0.00,,OVC,0.00,0.00,VWS V14.00,2013-06-06 12:47:00,
2013-06-06 08:52:00,73.5,63.1,30.13,NE,45,0.0,0.0,70,0.00,,OVC,0.00,0.00,VWS V14.00,2013-06-06 12:52:00,
2013-06-06 08:57:00,75.5,63.8,30.13,NE,45,0.0,0.0,67,0.00,,OVC,0.00,0.00,VWS V14.00,2013-06-06 12:57:00,
2013-06-06 09:02:00,77.3,64.2,30.13,ENE,68,3.8,3.8,64,0.00,,OVC,0.00,0.00,VWS V14.00,2013-06-06 13:02:00,
2013-06-06 09:07:00,78.0,63.5,30.13,SSE,158,0.0,0.0,61,0.00,,OVC,0.00,0.00,VWS V14.00,2013-06-06 13:07:00,
2013-06-06 09:12:00,79.3,63.7,30.13,NE,45,0.0,0.0,59,0.00,,OVC,0.00,0.00,VWS V14.00,2013-06-06 13:12:00,
2013-06-06 09:17:00,77.9,61.5,30.12,SSE,158,0.4,0.4,57,0.00,,OVC,0.00,0.00,VWS V14.00,2013-06-06 13:17:00,
2013-06-06 09:22:00,76.4,61.0,30.13,South,180,3.1,3.1,59,0.00,,OVC,0.00,0.00,VWS V14.00,2013-06-06 13:22:00,
2013-06-06 09:27:00,77.1,61.7,30.13,SW,225,0.0,0.0,59,0.00,,OVC,0.00,0.00,VWS V14.00,2013-06-06 13:27:00,
2013-06-06 09:32:00,77.5,61.1,30.13,SE,135,0.0,0.0,57,0.00,,OVC,0.00,0.00,VWS V14.00,2013-06-06 13:32:00,
2013-06-06 09:37:00,77.3,61.9,30.12,ESE,112,6.7,6.7,59,0.00,,OVC,0.00,0.00,VWS V14.00,2013-06-06 13:37:00,
2013-06-06 09:42:00,76.4,61.0,30.12,ESE,112,2.9,2.9,59,0.00,,OVC,0.00,0.00,VWS V14.00,2013-06-06 13:42:00,
2013-06-06 09:47:00,76.8,60.9,30.12,SSE,158,3.3,3.3,58,0.00,,OVC,0.00,0.00,VWS V14.00,2013-06-06 13:47:00,
2013-06-06 09:52:00,76.2,60.8,30.12,SSE,158,3.3,3.3,59,0.00,,OVC,0.00,0.00,VWS V14.00,2013-06-06 13:52:00,
2013-06-06 09:57:00,76.1,60.3,30.12,South,180,0.0,0.0,58,0.00,,OVC,0.00,0.00,VWS V14.00,2013-06-06 13:57:00,
2013-06-06 10:02:00,75.7,60.4,30.12,SE,135,5.5,5.5,59,0.00,,OVC,0.00,0.00,VWS V14.00,2013-06-06 14:02:00,
2013-06-06 10:07:00,74.6,59.8,30.12,East,90,0.0,0.0,60,0.00,,OVC,0.00,0.00,VWS V14.00,2013-06-06 14:07:00,
2013-06-06 10:12:00,74.6,59.8,30.12,ESE,112,0.0,0.0,60,0.00,,OVC,0.00,0.00,VWS V14.00,2013-06-06 14:12:00,
2013-06-06 10:17:00,74.1,60.3,30.12,SSW,202,0.0,0.0,62,0.00,,OVC,0.00,0.00,VWS V14.00,2013-06-06 14:17:00,
2013-06-06 10:22:00,75.9,62.0,30.12,SE,135,4.0,4.0,62,0.00,,OVC,0.00,0.00,VWS V14.00,2013-06-06 14:22:00,
2013-06-06 10:27:00,76.8,60.9,30.12,East,90,1.5,1.5,58,0.00,,OVC,0.00,0.00,VWS V14.00,2013-06-06 14:27:00,
2013-06-06 10:32:00,76.6,60.7,30.12,SSW,202,4.2,4.2,58,0.00,,OVC,0.00,0.00,VWS V14.00,2013-06-06 14:32:00,
2013-06-06 10:37:00,75.9,60.6,30.12,SSE,158,5.3,5.3,59,0.00,,OVC,0.00,0.00,VWS V14.00,2013-06-06 14:37:00,
2013-06-06 10:42:00,75.3,60.0,30.12,SE,135,1.5,1.5,59,0.00,,OVC,0.00,0.00,VWS V14.00,2013-06-06 14:42:00,
2013-06-06 10:47:00,76.1,60.8,30.12,ESE,112,5.1,5.1,59,0.00,,OVC,0.00,0.00,VWS V14.00,2013-06-06 14:47:00,
2013-06-06 10:52:00,75.9,60.6,30.11,ESE,112,0.8,0.8,59,0.00,,OVC,0.00,0.00,VWS V14.00,2013-06-06 14:52:00,
2013-06-06 10:57:00,75.3,60.0,30.12,SE,135,2.2,5.5,59,0.00,,OVC,0.00,0.00,VWS V14.00,2013-06-06 14:57:00,
2013-06-06 11:02:00,74.1,59.8,30.11,SSE,158,3.3,3.3,61,0.00,,OVC,0.00,0.00,VWS V14.00,2013-06-06 15:02:00,
2013-06-06 11:07:00,73.7,59.9,30.12,ESE,112,0.0,0.0,62,0.00,,OVC,0.00,0.00,VWS V14.00,2013-06-06 15:07:00,
2013-06-06 11:12:00,73.2,59.9,30.12,SE,135,0.0,6.0,63,0.00,,OVC,0.00,0.00,VWS V14.00,2013-06-06 15:12:00,
2013-06-06 11:17:00,72.3,59.0,30.12,SSE,158,0.0,0.2,63,0.00,,OVC,0.00,0.00,VWS V14.00,2013-06-06 15:17:00,
2013-06-06 11:22:00,71.7,58.9,30.12,East,90,0.0,2.4,64,0.00,,OVC,0.00,0.00,VWS V14.00,2013-06-06 15:22:00,
2013-06-06 11:27:00,71.7,59.8,30.12,SSE,158,1.1,1.1,66,0.00,,OVC,0.00,0.00,VWS V14.00,2013-06-06 15:27:00,
2013-06-06 11:32:00,72.3,60.3,30.12,SSE,158,8.9,8.9,66,0.00,,OVC,0.00,0.00,VWS V14.00,2013-06-06 15:32:00,
2013-06-06 11:37:00,72.6,60.2,30.12,ESE,112,2.9,2.9,65,0.00,,OVC,0.00,0.00,VWS V14.00,2013-06-06 15:37:00,
2013-06-06 11:42:00,72.5,60.1,30.11,SSE,158,2.4,2.4,65,0.00,,OVC,0.00,0.00,VWS V14.00,2013-06-06 15:42:00,
2013-06-06 11:47:00,71.9,59.5,30.11,ENE,68,6.2,6.2,65,0.00,,OVC,0.00,0.00,VWS V14.00,2013-06-06 15:47:00,
2013-06-06 11:52:00,71.4,59.5,30.11,ESE,112,2.4,2.4,66,0.00,,OVC,0.00,0.00,VWS V14.00,2013-06-06 15:52:00,
2013-06-06 11:57:00,70.8,59.3,30.11,ESE,112,3.8,3.8,67,0.00,,OVC,0.00,0.00,VWS V14.00,2013-06-06 15:57:00,
2013-06-06 12:02:00,70.8,59.7,30.11,ESE,112,0.0,0.0,68,0.00,,OVC,0.00,0.00,VWS V14.00,2013-06-06 16:02:00,
2013-06-06 12:07:00,70.7,59.6,30.11,ESE,112,0.0,0.0,68,0.00,,OVC,0.00,0.00,VWS V14.00,2013-06-06 16:07:00,
2013-06-06 12:12:00,70.5,59.4,30.11,SE,135,1.1,1.1,68,0.00,,OVC,0.00,0.00,VWS V14.00,2013-06-06 16:12:00,
2013-06-06 12:17:00,70.7,60.0,30.11,SW,225,0.8,0.8,69,0.00,,OVC,0.00,0.00,VWS V14.00,2013-06-06 16:17:00,
2013-06-06 12:22:00,70.5,59.8,30.11,SSE,158,9.8,9.8,69,0.00,,OVC,0.00,0.00,VWS V14.00,2013-06-06 16:22:00,
2013-06-06 12:27:00,70.3,59.7,30.11,SW,225,4.2,4.2,69,0.00,,OVC,0.00,0.00,VWS V14.00,2013-06-06 16:27:00,
2013-06-06 12:32:00,70.5,59.4,30.11,ESE,112,1.7,1.7,68,0.00,,OVC,0.00,0.00,VWS V14.00,2013-06-06 16:32:00,
2013-06-06 12:37:00,70.1,59.5,30.10,SSE,158,0.0,0.0,69,0.00,,OVC,0.00,0.00,VWS V14.00,2013-06-06 16:37:00,
2013-06-06 12:42:00,69.8,59.6,30.10,SE,135,2.9,2.9,70,0.00,,OVC,0.00,0.00,VWS V14.00,2013-06-06 16:42:00,
2013-06-06 12:47:00,69.6,59.4,30.11,ENE,68,0.0,0.0,70,0.00,,OVC,0.00,0.00,VWS V14.00,2013-06-06 16:47:00,
2013-06-06 12:52:00,69.4,59.2,30.11,SW,225,1.5,1.5,70,0.00,,OVC,0.00,0.00,VWS V14.00,2013-06-06 16:52:00,
2013-06-06 12:57:00,68.9,59.1,30.10,SE,135,3.1,4.0,71,0.00,,OVC,0.00,0.00,VWS V14.00,2013-06-06 16:57:00,
2013-06-06 13:02:00,68.7,58.9,30.09,SSE,158,0.6,4.9,71,0.00,,OVC,0.00,0.00,VWS V14.00,2013-06-06 17:02:00,
2013-06-06 13:07:00,68.5,59.1,30.09,East,90,0.8,0.8,72,0.00,,OVC,0.00,0.00,VWS V14.00,2013-06-06 17:07:00,
2013-06-06 13:12:00,68.7,59.3,30.10,SSE,158,0.0,0.0,72,0.00,,OVC,0.00,0.00,VWS V14.00,2013-06-06 17:12:00,
2013-06-06 13:17:00,68.7,59.3,30.10,ESE,112,4.4,4.4,72,0.00,,OVC,0.00,0.00,VWS V14.00,2013-06-06 17:17:00,
2013-06-06 13:22:00,69.0,59.6,30.09,SSE,158,0.0,0.0,72,0.00,,OVC,0.00,0.00,VWS V14.00,2013-06-06 17:22:00,
2013-06-06 13:27:00,69.9,60.1,30.10,SSE,158,1.3,1.5,71,0.00,,OVC,0.00,0.00,VWS V14.00,2013-06-06 17:27:00,
2013-06-06 13:32:00,70.7,60.8,30.10,SSW,202,3.8,3.8,71,0.00,,OVC,0.00,0.00,VWS V14.00,2013-06-06 17:32:00,
2013-06-06 13:37:00,70.7,60.5,30.09,ENE,68,0.0,0.0,70,0.00,,OVC,0.00,0.00,VWS V14.00,2013-06-06 17:37:00,
2013-06-06 13:42:00,70.8,60.1,30.10,ESE,112,2.0,2.0,69,0.00,,OVC,0.00,0.00,VWS V14.00,2013-06-06 17:42:00,
2013-06-06 13:47:00,70.1,59.9,30.09,SW,225,2.2,2.2,70,0.00,,OVC,0.00,0.00,VWS V14.00,2013-06-06 17:47:00,
2013-06-06 13:52:00,70.1,60.3,30.09,SSE,158,5.5,5.5,71,0.00,,OVC,0.00,0.00,VWS V14.00,2013-06-06 17:52:00,
2013-06-06 13:57:00,69.9,60.1,30.09,ESE,112,2.0,2.0,71,0.00,,OVC,0.00,0.00,VWS V14.00,2013-06-06 17:57:00,
2013-06-06 14:02:00,70.3,60.5,30.09,ESE,112,0.0,0.0,71,0.00,,OVC,0.00,0.00,VWS V14.00,2013-06-06 18:02:00,
2013-06-06 14:13:00,70.3,60.5,0.73,North,0,0.0,0.0,71,0.00,,OVC,0.00,0.00,VWS V14.00,2013-06-06 18:13:00,
2013-06-06 14:18:00,70.7,60.5,30.08,SSE,158,4.9,4.9,70,0.00,,OVC,16.19,0.00,VWS V14.00,2013-06-06 18:18:00,
2013-06-06 14:23:00,70.1,59.9,30.08,SE,135,2.6,2.6,70,0.00,,OVC,16.19,0.00,VWS V14.00,2013-06-06 18:23:00,
2013-06-06 14:28:00,69.9,60.1,30.08,SSW,202,5.1,5.1,71,0.00,,OVC,16.19,0.00,VWS V14.00,2013-06-06 18:28:00,
2013-06-06 14:33:00,70.1,60.3,30.08,SSW,202,2.6,2.6,71,0.00,,OVC,16.19,0.00,VWS V14.00,2013-06-06 18:33:00,
2013-06-06 14:38:00,69.8,60.0,30.08,SSW,202,5.8,5.8,71,0.00,,OVC,16.19,0.00,VWS V14.00,2013-06-06 18:38:00,
2013-06-06 14:43:00,69.6,59.8,30.08,SE,135,1.7,1.7,71,0.00,,OVC,16.19,0.00,VWS V14.00,2013-06-06 18:43:00,
2013-06-06 14:48:00,69.0,59.2,30.08,SW,225,0.0,0.0,71,0.00,,OVC,16.19,0.00,VWS V14.00,2013-06-06 18:48:00,
2013-06-06 14:53:00,68.5,59.1,30.08,NE,45,0.8,0.8,72,0.00,,OVC,16.19,0.00,VWS V14.00,2013-06-06 18:53:00,
2013-06-06 14:58:00,68.3,59.3,30.08,SE,135,0.0,0.0,73,0.00,,OVC,16.19,0.00,VWS V14.00,2013-06-06 18:58:00,
2013-06-06 15:03:00,68.3,59.3,30.08,SE,135,8.7,8.7,73,0.00,,OVC,16.19,0.00,VWS V14.00,2013-06-06 19:03:00,
2013-06-06 15:08:00,68.0,59.0,30.08,SW,225,3.5,3.5,73,0.00,,OVC,16.19,0.00,VWS V14.00,2013-06-06 19:08:00,
2013-06-06 15:13:00,68.1,59.1,30.08,SSE,158,6.0,6.0,73,0.00,,OVC,16.19,0.00,VWS V14.00,2013-06-06 19:13:00,
2013-06-06 15:18:00,67.8,59.2,30.07,SSW,202,1.5,1.5,74,0.00,,OVC,16.19,0.00,VWS V14.00,2013-06-06 19:18:00,
2013-06-06 15:23:00,68.0,59.4,30.07,SSE,158,0.8,0.8,74,0.00,,OVC,16.19,0.00,VWS V14.00,2013-06-06 19:23:00,
2013-06-06 15:28:00,67.8,59.2,30.07,ESE,112,0.0,0.0,74,0.00,,OVC,16.19,0.00,VWS V14.00,2013-06-06 19:28:00,
2013-06-06 15:33:00,67.2,59.0,30.06,South,180,2.4,2.4,75,0.00,,OVC,16.19,0.00,VWS V14.00,2013-06-06 19:33:00,
2013-06-06 15:34:00,67.2,59.0,30.06,South,180,0.0,0.0,75,0.00,,OVC,16.19,0.00,VWS V14.00,2013-06-06 19:34:00,
2013-06-06 15:39:00,67.6,59.4,30.06,SE,135,0.0,0.0,75,0.00,,OVC,16.19,0.00,VWS V14.00,2013-06-06 19:39:00,
2013-06-06 15:44:00,67.6,59.8,30.06,SSE,158,2.6,2.6,76,0.00,,OVC,16.19,0.00,VWS V14.00,2013-06-06 19:44:00,
2013-06-06 15:49:00,67.2,59.0,30.06,ESE,112,0.0,0.0,75,0.00,,OVC,16.19,0.00,VWS V14.00,2013-06-06 19:49:00,
2013-06-06 15:54:00,67.8,60.0,30.05,SSE,158,6.4,6.4,76,0.00,,OVC,16.19,0.00,VWS V14.00,2013-06-06 19:54:00,
2013-06-06 15:59:00,68.1,59.9,30.06,SSE,158,0.0,0.0,75,0.00,,OVC,16.19,0.00,VWS V14.00,2013-06-06 19:59:00,
2013-06-06 16:04:00,68.1,59.9,30.05,South,180,0.0,0.0,75,0.00,,OVC,16.19,0.00,VWS V14.00,2013-06-06 20:04:00,
2013-06-06 16:09:00,68.7,60.5,30.05,SSW,202,0.0,0.0,75,0.00,,OVC,16.19,0.00,VWS V14.00,2013-06-06 20:09:00,
2013-06-06 16:14:00,68.7,60.1,30.05,SSE,158,0.0,0.0,74,0.00,,OVC,16.19,0.00,VWS V14.00,2013-06-06 20:14:00,
2013-06-06 16:19:00,68.7,60.1,30.06,ENE,68,2.4,2.4,74,0.00,,OVC,16.19,0.00,VWS V14.00,2013-06-06 20:19:00,
2013-06-06 16:24:00,68.5,59.9,30.06,South,180,0.0,0.0,74,0.00,,OVC,16.19,0.00,VWS V14.00,2013-06-06 20:24:00,
2013-06-06 16:29:00,68.3,60.1,30.06,ENE,68,0.0,0.0,75,0.00,,OVC,16.19,0.00,VWS V14.00,2013-06-06 20:29:00,
2013-06-06 16:34:00,68.5,59.9,30.05,NNE,22,0.0,0.0,74,0.00,,OVC,16.19,0.00,VWS V14.00,2013-06-06 20:34:00,
2013-06-06 16:39:00,68.3,60.1,30.05,SE,135,0.0,0.0,75,0.00,,OVC,16.19,0.00,VWS V14.00,2013-06-06 20:39:00,
2013-06-06 16:44:00,68.1,59.9,30.05,ENE,68,3.8,3.8,75,0.00,,OVC,16.19,0.00,VWS V14.00,2013-06-06 20:44:00,
2013-06-06 16:49:00,67.8,59.6,30.05,East,90,0.0,0.0,75,0.00,,OVC,16.19,0.00,VWS V14.00,2013-06-06 20:49:00,
2013-06-06 16:54:00,67.6,59.8,30.05,SE,135,2.4,2.4,76,0.00,,OVC,16.19,0.00,VWS V14.00,2013-06-06 20:54:00,
2013-06-06 16:59:00,67.1,59.3,30.05,SE,135,1.1,1.1,76,0.00,,OVC,16.19,0.00,VWS V14.00,2013-06-06 20:59:00,
2013-06-06 17:04:00,66.9,59.1,30.05,ESE,112,0.0,0.0,76,0.00,,OVC,16.19,0.00,VWS V14.00,2013-06-06 21:04:00,
2013-06-06 17:09:00,66.9,59.5,30.05,ESE,112,0.0,0.0,77,0.00,,OVC,16.19,0.00,VWS V14.00,2013-06-06 21:09:00,
2013-06-06 17:14:00,66.9,59.5,30.05,SE,135,0.0,0.0,77,0.00,,OVC,16.19,0.00,VWS V14.00,2013-06-06 21:14:00,
2013-06-06 17:19:00,66.7,59.3,30.05,SE,135,1.5,1.5,77,0.00,,OVC,16.19,0.00,VWS V14.00,2013-06-06 21:19:00,
2013-06-06 17:24:00,66.7,59.3,30.05,South,180,0.0,0.0,77,0.00,,OVC,16.19,0.00,VWS V14.00,2013-06-06 21:24:00,
2013-06-06 17:29:00,66.3,58.9,30.05,SSW,202,0.0,0.0,77,0.00,,OVC,16.19,0.00,VWS V14.00,2013-06-06 21:29:00,
2013-06-06 17:34:00,66.0,58.6,30.05,SE,135,0.0,0.0,77,0.00,,OVC,16.19,0.00,VWS V14.00,2013-06-06 21:34:00,
2013-06-06 17:39:00,65.8,58.8,30.05,SSE,158,1.1,1.1,78,0.00,,OVC,16.19,0.00,VWS V14.00,2013-06-06 21:39:00,
2013-06-06 17:44:00,65.4,58.4,30.05,SE,135,0.0,0.0,78,0.00,,OVC,16.19,0.00,VWS V14.00,2013-06-06 21:44:00,
2013-06-06 17:49:00,65.4,58.7,30.05,SE,135,0.0,0.0,79,0.00,,OVC,16.19,0.00,VWS V14.00,2013-06-06 21:49:00,
2013-06-06 17:54:00,65.3,58.6,30.04,SE,135,0.6,0.6,79,0.00,,OVC,16.19,0.00,VWS V14.00,2013-06-06 21:54:00,
2013-06-06 17:59:00,65.3,58.6,30.04,ESE,112,0.0,0.0,79,0.00,,OVC,16.19,0.00,VWS V14.00,2013-06-06 21:59:00,
2013-06-06 18:04:00,65.1,58.4,30.04,ENE,68,0.0,0.0,79,0.00,,OVC,16.19,0.00,VWS V14.00,2013-06-06 22:04:00,
2013-06-06 18:09:00,64.9,58.6,30.04,SE,135,4.9,4.9,80,0.00,,OVC,16.19,0.00,VWS V14.00,2013-06-06 22:09:00,
2013-06-06 18:14:00,64.5,58.2,30.03,SE,135,0.0,0.0,80,0.00,,OVC,16.19,0.00,VWS V14.00,2013-06-06 22:14:00,
2013-06-06 18:19:00,64.4,58.1,30.03,SE,135,0.0,0.0,80,0.00,,OVC,16.19,0.00,VWS V14.00,2013-06-06 22:19:00,
2013-06-06 18:24:00,64.2,58.3,30.03,ESE,112,0.0,0.0,81,0.00,,OVC,16.19,0.00,VWS V14.00,2013-06-06 22:24:00,
2013-06-06 18:29:00,64.0,58.1,30.03,SE,135,0.0,0.0,81,0.00,,OVC,16.19,0.00,VWS V14.00,2013-06-06 22:29:00,
2013-06-06 18:34:00,64.2,58.3,30.03,SE,135,2.2,2.2,81,0.00,,OVC,16.19,0.00,VWS V14.00,2013-06-06 22:34:00,
2013-06-06 18:39:00,64.0,58.1,30.03,SE,135,0.0,0.0,81,0.00,,OVC,16.19,0.00,VWS V14.00,2013-06-06 22:39:00,
2013-06-06 18:44:00,64.0,58.1,30.03,ESE,112,7.1,7.1,81,0.00,,OVC,16.19,0.00,VWS V14.00,2013-06-06 22:44:00,
2013-06-06 18:49:00,64.0,58.1,30.04,ENE,68,0.0,0.0,81,0.00,,OVC,16.19,0.00,VWS V14.00,2013-06-06 22:49:00,
2013-06-06 18:54:00,63.6,58.0,30.03,SSE,158,1.7,1.7,82,0.00,,OVC,16.19,0.00,VWS V14.00,2013-06-06 22:54:00,
2013-06-06 18:59:00,63.8,58.2,30.03,SE,135,1.5,1.5,82,0.00,,OVC,16.19,0.00,VWS V14.00,2013-06-06 22:59:00,
2013-06-06 19:04:00,63.8,58.2,30.03,ESE,112,0.0,0.0,82,0.00,,OVC,16.19,0.00,VWS V14.00,2013-06-06 23:04:00,
2013-06-06 19:09:00,63.6,58.0,30.03,ESE,112,0.0,0.0,82,0.00,,OVC,16.19,0.00,VWS V14.00,2013-06-06 23:09:00,
2013-06-06 19:14:00,63.6,58.0,30.03,SE,135,4.4,4.4,82,0.00,,OVC,16.19,0.00,VWS V14.00,2013-06-06 23:14:00,
2013-06-06 19:19:00,63.3,57.7,30.03,NE,45,2.6,2.6,82,0.00,,OVC,16.19,0.00,VWS V14.00,2013-06-06 23:19:00,
2013-06-06 19:24:00,63.3,58.1,30.03,SE,135,0.0,0.0,83,0.00,,OVC,16.19,0.00,VWS V14.00,2013-06-06 23:24:00,
2013-06-06 19:29:00,63.3,58.1,30.03,ESE,112,0.0,0.0,83,0.00,,OVC,16.19,0.00,VWS V14.00,2013-06-06 23:29:00,
2013-06-06 19:34:00,63.1,57.9,30.03,ESE,112,2.6,2.6,83,0.00,,OVC,16.19,0.00,VWS V14.00,2013-06-06 23:34:00,
2013-06-06 19:39:00,63.1,58.2,30.03,SE,135,0.0,0.0,84,0.00,,OVC,16.19,0.00,VWS V14.00,2013-06-06 23:39:00,
2013-06-06 19:44:00,62.9,58.0,30.04,ENE,68,4.9,4.9,84,0.00,,OVC,16.19,0.00,VWS V14.00,2013-06-06 23:44:00,
2013-06-06 19:49:00,62.9,58.0,30.04,SE,135,0.0,0.0,84,0.00,,OVC,16.19,0.00,VWS V14.00,2013-06-06 23:49:00,
2013-06-06 19:54:00,62.9,58.0,30.04,ESE,112,0.0,0.0,84,0.00,,OVC,16.19,0.00,VWS V14.00,2013-06-06 23:54:00,
2013-06-06 19:59:00,62.9,58.0,30.04,SE,135,3.8,3.8,84,0.00,,OVC,16.19,0.00,VWS V14.00,2013-06-06 23:59:00,
2013-06-06 20:04:00,62.7,57.8,30.04,SE,135,0.0,0.0,84,0.00,,OVC,16.19,0.00,VWS V14.00,2013-06-07 00:04:00,
2013-06-06 20:09:00,62.7,57.8,30.04,SE,135,0.0,0.0,84,0.00,,OVC,16.19,0.00,VWS V14.00,2013-06-07 00:09:00,
2013-06-06 20:14:00,62.7,57.8,30.04,ESE,112,0.0,0.0,84,0.00,,OVC,16.19,0.00,VWS V14.00,2013-06-07 00:14:00,
2013-06-06 20:19:00,62.7,57.8,30.03,ESE,112,0.0,0.0,84,0.00,,OVC,16.19,0.00,VWS V14.00,2013-06-07 00:19:00,
2013-06-06 20:24:00,62.7,57.8,30.04,ESE,112,0.0,0.0,84,0.00,,OVC,16.19,0.00,VWS V14.00,2013-06-07 00:24:00,
2013-06-06 20:29:00,62.7,57.8,30.04,SE,135,3.8,3.8,84,0.00,,OVC,16.19,0.00,VWS V14.00,2013-06-07 00:29:00,
2013-06-06 20:34:00,62.7,57.8,30.04,SE,135,0.0,0.0,84,0.00,,OVC,16.19,0.00,VWS V14.00,2013-06-07 00:34:00,
2013-06-06 20:39:00,62.7,57.8,30.03,ESE,112,4.6,4.6,84,0.00,,OVC,16.19,0.00,VWS V14.00,2013-06-07 00:39:00,
2013-06-06 20:44:00,62.6,57.7,30.03,East,90,0.0,0.0,84,0.00,,OVC,16.19,0.00,VWS V14.00,2013-06-07 00:44:00,
2013-06-06 20:49:00,62.7,57.8,30.03,SE,135,0.0,0.0,84,0.00,,OVC,16.19,0.00,VWS V14.00,2013-06-07 00:49:00,
2013-06-06 20:54:00,62.7,57.8,30.03,NE,45,0.0,0.0,84,0.00,,OVC,16.19,0.00,VWS V14.00,2013-06-07 00:54:00,
2013-06-06 20:59:00,62.7,57.8,30.03,SE,135,0.0,0.0,84,0.00,,OVC,16.19,0.00,VWS V14.00,2013-06-07 00:59:00,
2013-06-06 21:04:00,62.7,57.8,30.03,East,90,0.0,0.0,84,0.00,,OVC,16.19,0.00,VWS V14.00,2013-06-07 01:04:00,
2013-06-06 21:09:00,62.7,57.8,30.03,SE,135,2.2,2.2,84,0.00,,OVC,16.19,0.00,VWS V14.00,2013-06-07 01:09:00,
2013-06-06 21:14:00,62.7,57.8,30.04,South,180,3.3,3.3,84,0.00,,OVC,16.19,0.00,VWS V14.00,2013-06-07 01:14:00,
2013-06-06 21:19:00,62.7,57.8,30.04,SSW,202,3.3,3.3,84,0.00,,OVC,16.19,0.00,VWS V14.00,2013-06-07 01:19:00,
2013-06-06 21:24:00,62.7,57.8,30.04,SSE,158,1.1,1.1,84,0.00,,OVC,16.19,0.00,VWS V14.00,2013-06-07 01:24:00,
2013-06-06 21:29:00,62.7,57.8,30.04,SSE,158,0.0,0.0,84,0.00,,OVC,16.19,0.00,VWS V14.00,2013-06-07 01:29:00,
2013-06-06 21:34:00,62.7,57.8,30.04,SE,135,0.6,0.6,84,0.00,,OVC,16.19,0.00,VWS V14.00,2013-06-07 01:34:00,
2013-06-06 21:39:00,62.7,57.8,30.05,SSW,202,0.0,0.0,84,0.00,,OVC,16.19,0.00,VWS V14.00,2013-06-07 01:39:00,
2013-06-06 21:44:00,62.6,57.7,30.05,ESE,112,0.0,0.0,84,0.00,,OVC,16.19,0.00,VWS V14.00,2013-06-07 01:44:00,
2013-06-06 21:49:00,62.6,57.7,30.04,SE,135,0.0,0.0,84,0.00,,OVC,16.19,0.00,VWS V14.00,2013-06-07 01:49:00,
2013-06-06 21:54:00,62.4,57.8,30.04,SE,135,3.1,3.1,85,0.00,,OVC,16.19,0.00,VWS V14.00,2013-06-07 01:54:00,
2013-06-06 21:59:00,62.4,57.8,30.04,SE,135,0.0,0.0,85,0.00,,OVC,16.19,0.00,VWS V14.00,2013-06-07 01:59:00,
2013-06-06 22:04:00,62.4,57.8,30.04,ESE,112,0.0,0.0,85,0.00,,OVC,16.19,0.00,VWS V14.00,2013-06-07 02:04:00,
2013-06-06 22:09:00,62.4,57.8,30.04,SE,135,0.0,0.0,85,0.00,,OVC,16.19,0.00,VWS V14.00,2013-06-07 02:09:00,
2013-06-06 22:14:00,62.4,57.8,30.04,ESE,112,0.0,0.0,85,0.00,,OVC,16.19,0.00,VWS V14.00,2013-06-07 02:14:00,
2013-06-06 22:19:00,62.4,57.8,30.04,SW,225,0.0,0.0,85,0.00,,OVC,16.19,0.00,VWS V14.00,2013-06-07 02:19:00,
2013-06-06 22:24:00,62.2,57.6,30.04,SE,135,0.0,0.0,85,0.00,,OVC,16.19,0.00,VWS V14.00,2013-06-07 02:24:00,
2013-06-06 22:29:00,62.2,58.0,30.04,SE,135,0.0,0.0,86,0.00,,OVC,16.19,0.00,VWS V14.00,2013-06-07 02:29:00,
2013-06-06 22:34:00,62.0,57.8,30.03,SE,135,3.5,3.5,86,0.02,,OVC,16.21,0.00,VWS V14.00,2013-06-07 02:34:00,
2013-06-06 22:39:00,61.8,57.6,30.03,SE,135,2.6,2.6,86,0.02,,OVC,16.21,0.00,VWS V14.00,2013-06-07 02:39:00,
2013-06-06 22:44:00,61.8,57.9,30.03,SSE,158,0.0,0.0,87,0.02,,OVC,16.21,0.00,VWS V14.00,2013-06-07 02:44:00,
2013-06-06 22:49:00,61.8,57.9,30.03,SE,135,2.2,2.2,87,0.02,,OVC,16.21,0.00,VWS V14.00,2013-06-07 02:49:00,
2013-06-06 22:54:00,61.7,57.8,30.02,South,180,0.0,0.0,87,0.02,,OVC,16.21,0.00,VWS V14.00,2013-06-07 02:54:00,
2013-06-06 22:58:00,61.7,57.8,30.02,ESE,112,0.0,0.0,87,0.02,,OVC,16.21,0.00,VWS V14.00,2013-06-07 02:58:00,
2013-06-06 23:03:00,61.5,57.6,30.02,SE,135,0.0,0.0,87,0.02,,OVC,16.21,0.00,VWS V14.00,2013-06-07 03:03:00,
2013-06-06 23:08:00,61.5,57.9,30.01,ESE,112,0.0,0.0,88,0.02,,OVC,16.21,0.00,VWS V14.00,2013-06-07 03:08:00,
2013-06-06 23:13:00,61.3,57.7,30.00,ENE,68,0.0,0.0,88,0.02,,OVC,16.21,0.00,VWS V14.00,2013-06-07 03:13:00,
2013-06-06 23:18:00,61.5,57.9,30.00,SE,135,0.6,0.6,88,0.02,,OVC,16.21,0.00,VWS V14.00,2013-06-07 03:18:00,
2013-06-06 23:23:00,61.3,57.7,30.00,SE,135,2.4,2.4,88,0.02,,OVC,16.21,0.00,VWS V14.00,2013-06-07 03:23:00,
2013-06-06 23:28:00,61.3,57.7,30.00,SE,135,8.5,8.5,88,0.02,,OVC,16.21,0.00,VWS V14.00,2013-06-07 03:28:00,
2013-06-06 23:33:00,61.3,57.7,30.00,SSE,158,5.3,5.3,88,0.00,,OVC,16.21,0.00,VWS V14.00,2013-06-07 03:33:00,
2013-06-06 23:38:00,61.3,57.7,30.00,SE,135,0.0,0.0,88,0.00,,OVC,16.21,0.00,VWS V14.00,2013-06-07 03:38:00,
2013-06-06 23:43:00,61.3,57.7,30.00,SE,135,3.1,3.1,88,0.00,,OVC,16.21,0.00,VWS V14.00,2013-06-07 03:43:00,
2013-06-06 23:48:00,61.3,57.7,30.00,ESE,112,2.0,2.0,88,0.02,,OVC,16.23,0.00,VWS V14.00,2013-06-07 03:48:00,
2013-06-06 23:53:00,61.3,57.7,29.99,ESE,112,1.7,1.7,88,0.02,,OVC,16.23,0.00,VWS V14.00,2013-06-07 03:53:00,
2013-06-06 23:58:00,61.3,58.0,29.99,ESE,112,0.0,0.0,89,0.02,,OVC,16.23,0.00,VWS V14.00,2013-06-07 03:58:00,